createdAt,value
2019-02-14T00:00:45.524Z,99.90
2019-02-14T00:05:50.423Z,99.90
2019-02-14T00:26:07.479Z,99.90
2019-02-14T00:36:16.304Z,99.90
2019-02-14T01:06:41.947Z,99.90
2019-02-14T01:11:50.070Z,99.90
2019-02-14T01:16:54.698Z,99.90
2019-02-14T01:22:01.797Z,99.90
2019-02-14T01:47:26.738Z,99.90
2019-02-14T01:57:35.633Z,99.90
2019-02-14T02:07:44.481Z,99.90
2019-02-14T02:28:02.838Z,99.90
2019-02-14T02:33:07.567Z,99.90
2019-02-14T02:38:12.339Z,99.90
2019-02-14T02:48:21.106Z,99.90
2019-02-14T02:53:26.970Z,99.90
2019-02-14T02:58:32.004Z,99.90
2019-02-14T03:03:36.664Z,99.90
2019-02-14T03:13:46.670Z,99.90
2019-02-14T03:28:59.933Z,99.90
2019-02-14T03:34:04.768Z,99.90
2019-02-14T03:39:09.550Z,99.90
2019-02-14T03:49:20.837Z,99.90
2019-02-14T03:54:25.814Z,99.90
2019-02-14T03:59:30.597Z,99.90
2019-02-14T04:04:35.432Z,99.90
2019-02-14T04:09:40.089Z,99.90
2019-02-14T04:14:47.730Z,99.90
2019-02-14T04:19:52.410Z,99.90
2019-02-14T04:35:06.187Z,99.90
2019-02-14T04:40:12.020Z,99.90
2019-02-14T04:45:16.697Z,99.90
2019-02-14T04:50:21.580Z,99.90
2019-02-14T05:00:30.454Z,99.90
2019-02-14T05:10:39.566Z,99.90
2019-02-14T05:15:47.762Z,99.90
2019-02-14T05:25:59.176Z,99.90
2019-02-14T05:31:17.691Z,99.90
2019-02-14T05:41:28.831Z,99.90
2019-02-14T05:56:44.536Z,99.90
2019-02-14T06:22:17.646Z,99.90
2019-02-14T06:32:26.763Z,99.90
2019-02-14T06:37:31.520Z,99.90
2019-02-14T06:42:36.318Z,99.90
2019-02-14T06:47:44.057Z,99.90
2019-02-14T06:52:48.899Z,99.90
2019-02-14T06:57:54.005Z,99.90
2019-02-14T07:03:01.846Z,99.90
2019-02-14T07:13:19.709Z,99.90
2019-02-14T07:23:37.964Z,99.90
2019-02-14T07:28:45.312Z,99.90
2019-02-14T07:39:05.456Z,99.90
2019-02-14T08:04:32.176Z,99.90
2019-02-14T08:09:37.189Z,99.90
2019-02-14T08:14:41.791Z,99.90
2019-02-14T08:19:47.285Z,99.90
2019-02-14T08:35:00.332Z,99.90
2019-02-14T08:40:08.348Z,99.90
2019-02-14T08:45:13.472Z,99.90
2019-02-14T08:50:18.189Z,99.90
2019-02-14T08:55:31.693Z,99.90
2019-02-14T09:00:36.652Z,99.90
2019-02-14T09:05:41.622Z,99.90
2019-02-14T09:15:50.497Z,99.90
2019-02-14T09:36:10.345Z,99.90
2019-02-14T09:41:15.225Z,99.90
2019-02-14T09:51:25.932Z,99.90
2019-02-14T09:56:31.084Z,99.90
2019-02-14T10:11:46.471Z,99.90
2019-02-14T10:16:51.268Z,99.90
2019-02-14T10:21:56.337Z,99.90
2019-02-14T10:27:01.460Z,99.90
2019-02-14T10:32:06.714Z,99.90
2019-02-14T10:37:21.656Z,99.90
2019-02-14T10:42:36.999Z,99.90
2019-02-14T10:47:41.816Z,99.90
2019-02-14T10:52:47.711Z,91.70
2019-02-14T10:57:52.712Z,93.50
2019-02-14T11:08:31.713Z,99.90
2019-02-14T11:13:36.223Z,97.60
2019-02-14T11:18:44.381Z,90.70
2019-02-14T11:23:50.247Z,97.10
2019-02-14T11:28:55.315Z,93.80
2019-02-14T11:34:00.202Z,99.90
2019-02-14T11:39:09.049Z,90.10
2019-02-14T11:44:13.999Z,85.40
2019-02-14T11:49:18.659Z,90.00
2019-02-14T11:54:23.885Z,92.90
2019-02-14T11:59:28.618Z,87.50
2019-02-14T12:04:33.621Z,94.80
2019-02-14T12:09:38.745Z,86.50
2019-02-14T12:14:43.815Z,88.80
2019-02-14T12:19:49.020Z,96.30
2019-02-14T12:24:53.896Z,92.20
2019-02-14T12:29:58.569Z,99.90
2019-02-14T12:35:04.989Z,89.70
2019-02-14T12:40:10.689Z,93.60
2019-02-14T12:45:20.498Z,91.70
2019-02-14T12:50:23.764Z,91.00
2019-02-14T12:55:28.779Z,92.50
2019-02-14T13:00:33.544Z,93.40
2019-02-14T13:05:38.409Z,92.30
2019-02-14T13:10:43.422Z,90.00
2019-02-14T13:15:48.362Z,75.90
2019-02-14T13:20:57.018Z,82.10
2019-02-14T13:26:01.859Z,90.70
2019-02-14T13:31:06.813Z,74.30
2019-02-14T13:36:11.758Z,77.80
2019-02-14T13:41:16.742Z,76.10
2019-02-14T13:46:21.506Z,88.80
2019-02-14T13:51:26.416Z,70.70
2019-02-14T13:56:31.187Z,63.30
2019-02-14T14:01:36.019Z,75.30
2019-02-14T14:06:40.779Z,59.20
2019-02-14T14:12:09.188Z,59.80
2019-02-14T14:17:14.026Z,57.70
2019-02-14T14:22:18.859Z,65.30
2019-02-14T14:27:24.273Z,68.50
2019-02-14T14:32:29.127Z,63.90
2019-02-14T14:37:35.120Z,78.30
2019-02-14T14:43:07.884Z,69.90
2019-02-14T14:48:19.669Z,66.00
2019-02-14T14:53:20.098Z,70.20
2019-02-14T14:58:25.042Z,57.40
2019-02-14T15:03:40.704Z,73.60
2019-02-14T15:08:46.802Z,62.10
2019-02-14T15:13:51.664Z,63.60
2019-02-14T15:18:56.437Z,53.50
2019-02-14T15:24:09.640Z,56.80
2019-02-14T20:55:28.725Z,99.90
2019-02-14T21:05:40.245Z,99.90
2019-02-14T21:10:45.096Z,99.90
2019-02-14T21:15:49.908Z,99.90
2019-02-14T21:41:44.368Z,99.90
2019-02-14T21:57:11.071Z,99.90
2019-02-14T22:22:49.851Z,99.90
2019-02-14T22:27:56.729Z,99.90
2019-02-14T22:33:02.312Z,99.90
2019-02-14T22:38:08.279Z,99.90
2019-02-14T22:48:28.671Z,99.90
2019-02-14T23:04:01.478Z,99.90
2019-02-14T23:19:29.985Z,99.90
2019-02-14T23:49:58.134Z,99.90
